sensor_id;sensor_type;location;lat;lon;timestamp;pressure;altitude;pressure_sealevel;temperature;humidity
15529;BME280;7866;52.280;9.500;2024-02-15T00:04:26;100430.44;;;12.00;100.00
15529;BME280;7866;52.280;9.500;2024-02-15T00:09:29;100418.72;;;12.01;100.00
15529;BME280;7866;52.280;9.500;2024-02-15T00:14:30;100417.84;;;12.00;100.00
15529;BME280;7866;52.280;9.500;2024-02-15T00:19:32;100418.88;;;11.99;100.00
15529;BME280;7866;52.280;9.500;2024-02-15T00:24:36;100427.59;;;12.01;100.00
15529;BME280;7866;52.280;9.500;2024-02-15T00:29:38;100425.56;;;12.03;100.00
15529;BME280;7866;52.280;9.500;2024-02-15T00:34:40;100425.91;;;12.00;100.00
15529;BME280;7866;52.280;9.500;2024-02-15T00:39:43;100416.34;;;12.06;100.00
15529;BME280;7866;52.280;9.500;2024-02-15T00:44:45;100428.44;;;12.02;100.00
15529;BME280;7866;52.280;9.500;2024-02-15T00:49:48;100432.97;;;12.01;100.00
15529;BME280;7866;52.280;9.500;2024-02-15T00:54:52;100429.47;;;12.01;100.00
15529;BME280;7866;52.280;9.500;2024-02-15T00:59:53;100432.25;;;12.07;100.00
15529;BME280;7866;52.280;9.500;2024-02-15T01:04:55;100441.31;;;12.06;100.00
15529;BME280;7866;52.280;9.500;2024-02-15T01:09:59;100434.28;;;12.05;100.00
15529;BME280;7866;52.280;9.500;2024-02-15T01:15:01;100438.63;;;12.06;100.00
15529;BME280;7866;52.280;9.500;2024-02-15T01:20:03;100433.91;;;12.08;100.00
15529;BME280;7866;52.280;9.500;2024-02-15T01:25:08;100430.59;;;12.06;100.00
15529;BME280;7866;52.280;9.500;2024-02-15T01:30:11;100437.09;;;12.12;100.00
15529;BME280;7866;52.280;9.500;2024-02-15T01:35:13;100439.28;;;12.08;100.00
15529;BME280;7866;52.280;9.500;2024-02-15T01:40:16;100425.22;;;12.06;100.00
15529;BME280;7866;52.280;9.500;2024-02-15T01:45:18;100414.00;;;12.03;100.00
15529;BME280;7866;52.280;9.500;2024-02-15T01:50:21;100412.97;;;12.04;100.00
15529;BME280;7866;52.280;9.500;2024-02-15T01:55:24;100418.19;;;12.05;100.00
15529;BME280;7866;52.280;9.500;2024-02-15T02:00:27;100413.16;;;12.02;100.00
15529;BME280;7866;52.280;9.500;2024-02-15T02:05:29;100416.63;;;12.11;100.00
15529;BME280;7866;52.280;9.500;2024-02-15T02:10:32;100412.09;;;12.12;100.00
15529;BME280;7866;52.280;9.500;2024-02-15T02:15:34;100405.06;;;12.11;100.00
15529;BME280;7866;52.280;9.500;2024-02-15T02:20:37;100412.75;;;12.14;100.00
15529;BME280;7866;52.280;9.500;2024-02-15T02:25:41;100411.41;;;12.18;100.00
15529;BME280;7866;52.280;9.500;2024-02-15T02:30:43;100406.09;;;12.10;100.00
15529;BME280;7866;52.280;9.500;2024-02-15T02:35:45;100404.03;;;12.12;100.00
15529;BME280;7866;52.280;9.500;2024-02-15T02:40:49;100404.03;;;12.12;100.00
15529;BME280;7866;52.280;9.500;2024-02-15T02:45:51;100406.72;;;12.12;100.00
15529;BME280;7866;52.280;9.500;2024-02-15T02:50:52;100400.53;;;12.11;100.00
15529;BME280;7866;52.280;9.500;2024-02-15T02:55:56;100409.06;;;12.15;100.00
15529;BME280;7866;52.280;9.500;2024-02-15T03:00:58;100398.97;;;12.17;100.00
15529;BME280;7866;52.280;9.500;2024-02-15T03:06:00;100400.66;;;12.18;100.00
15529;BME280;7866;52.280;9.500;2024-02-15T03:11:04;100399.63;;;12.19;100.00
15529;BME280;7866;52.280;9.500;2024-02-15T03:16:06;100402.81;;;12.22;100.00
15529;BME280;7866;52.280;9.500;2024-02-15T03:21:07;100396.94;;;12.19;100.00
15529;BME280;7866;52.280;9.500;2024-02-15T03:26:12;100406.84;;;12.18;100.00
15529;BME280;7866;52.280;9.500;2024-02-15T03:31:14;100401.50;;;12.18;100.00
15529;BME280;7866;52.280;9.500;2024-02-15T03:36:16;100410.03;;;12.22;100.00
15529;BME280;7866;52.280;9.500;2024-02-15T03:41:21;100413.72;;;12.21;100.00
15529;BME280;7866;52.280;9.500;2024-02-15T03:46:23;100409.00;;;12.23;100.00
15529;BME280;7866;52.280;9.500;2024-02-15T03:51:25;100404.31;;;12.25;100.00
15529;BME280;7866;52.280;9.500;2024-02-15T03:56:28;100407.34;;;12.22;100.00
15529;BME280;7866;52.280;9.500;2024-02-15T04:01:30;100412.72;;;12.22;100.00
15529;BME280;7866;52.280;9.500;2024-02-15T04:06:34;100424.63;;;12.19;100.00
15529;BME280;7866;52.280;9.500;2024-02-15T04:11:38;100414.72;;;12.20;100.00
15529;BME280;7866;52.280;9.500;2024-02-15T04:16:39;100415.56;;;12.20;100.00
15529;BME280;7866;52.280;9.500;2024-02-15T04:21:41;100412.03;;;12.20;100.00
15529;BME280;7866;52.280;9.500;2024-02-15T04:26:45;100419.25;;;12.19;100.00
15529;BME280;7866;52.280;9.500;2024-02-15T04:31:48;100414.44;;;12.15;100.00
15529;BME280;7866;52.280;9.500;2024-02-15T04:36:51;100422.13;;;12.18;100.00
15529;BME280;7866;52.280;9.500;2024-02-15T04:41:57;100423.59;;;12.20;100.00
15529;BME280;7866;52.280;9.500;2024-02-15T04:46:58;100425.78;;;12.25;100.00
15529;BME280;7866;52.280;9.500;2024-02-15T04:52:00;100416.38;;;12.29;100.00
15529;BME280;7866;52.280;9.500;2024-02-15T04:57:04;100414.03;;;12.26;100.00
15529;BME280;7866;52.280;9.500;2024-02-15T05:02:11;100431.59;;;12.28;100.00
15529;BME280;7866;52.280;9.500;2024-02-15T05:07:13;100431.25;;;12.31;100.00
15529;BME280;7866;52.280;9.500;2024-02-15T05:12:23;100433.13;;;12.31;100.00
15529;BME280;7866;52.280;9.500;2024-02-15T05:17:25;100424.41;;;12.29;100.00
15529;BME280;7866;52.280;9.500;2024-02-15T05:22:28;100425.88;;;12.31;100.00
15529;BME280;7866;52.280;9.500;2024-02-15T05:27:31;100424.09;;;12.24;100.00
15529;BME280;7866;52.280;9.500;2024-02-15T05:32:33;100418.03;;;12.30;100.00
15529;BME280;7866;52.280;9.500;2024-02-15T05:37:41;100414.13;;;12.32;100.00
15529;BME280;7866;52.280;9.500;2024-02-15T05:42:44;100422.84;;;12.35;100.00
15529;BME280;7866;52.280;9.500;2024-02-15T05:47:46;100420.34;;;12.33;100.00
15529;BME280;7866;52.280;9.500;2024-02-15T05:52:48;100417.19;;;12.29;100.00
15529;BME280;7866;52.280;9.500;2024-02-15T05:57:51;100415.03;;;12.25;100.00
15529;BME280;7866;52.280;9.500;2024-02-15T06:02:52;100417.19;;;12.29;100.00
15529;BME280;7866;52.280;9.500;2024-02-15T06:07:55;100413.69;;;12.29;100.00
15529;BME280;7866;52.280;9.500;2024-02-15T06:12:59;100431.44;;;12.30;100.00
15529;BME280;7866;52.280;9.500;2024-02-15T06:18:01;100434.78;;;12.32;100.00
15529;BME280;7866;52.280;9.500;2024-02-15T06:23:04;100429.72;;;12.37;100.00
15529;BME280;7866;52.280;9.500;2024-02-15T06:28:09;100439.81;;;12.35;100.00
15529;BME280;7866;52.280;9.500;2024-02-15T06:33:20;100449.38;;;12.38;100.00
15529;BME280;7866;52.280;9.500;2024-02-15T06:38:35;100457.91;;;12.41;100.00
15529;BME280;7866;52.280;9.500;2024-02-15T06:43:55;100455.84;;;12.43;100.00
15529;BME280;7866;52.280;9.500;2024-02-15T06:48:57;100452.34;;;12.43;100.00
15529;BME280;7866;52.280;9.500;2024-02-15T06:53:59;100453.38;;;12.42;100.00
15529;BME280;7866;52.280;9.500;2024-02-15T06:59:03;100433.72;;;12.41;100.00
15529;BME280;7866;52.280;9.500;2024-02-15T07:04:04;100440.41;;;12.45;100.00
15529;BME280;7866;52.280;9.500;2024-02-15T07:09:06;100434.38;;;12.43;100.00
15529;BME280;7866;52.280;9.500;2024-02-15T07:14:09;100429.00;;;12.43;100.00
15529;BME280;7866;52.280;9.500;2024-02-15T07:19:11;100428.66;;;12.46;100.00
15529;BME280;7866;52.280;9.500;2024-02-15T07:24:12;100414.13;;;12.55;100.00
15529;BME280;7866;52.280;9.500;2024-02-15T07:29:16;100410.91;;;12.60;100.00
15529;BME280;7866;52.280;9.500;2024-02-15T07:34:18;100415.28;;;12.61;100.00
15529;BME280;7866;52.280;9.500;2024-02-15T07:39:19;100418.13;;;12.60;100.00
15529;BME280;7866;52.280;9.500;2024-02-15T07:44:26;100421.22;;;12.71;100.00
15529;BME280;7866;52.280;9.500;2024-02-15T07:49:31;100424.66;;;12.65;100.00
15529;BME280;7866;52.280;9.500;2024-02-15T07:54:33;100418.25;;;12.66;100.00
15529;BME280;7866;52.280;9.500;2024-02-15T07:59:36;100407.31;;;12.68;100.00
15529;BME280;7866;52.280;9.500;2024-02-15T08:04:39;100423.06;;;12.71;100.00
15529;BME280;7866;52.280;9.500;2024-02-15T08:09:44;100423.69;;;12.81;100.00
15529;BME280;7866;52.280;9.500;2024-02-15T08:14:48;100416.00;;;12.93;100.00
15529;BME280;7866;52.280;9.500;2024-02-15T08:19:49;100401.25;;;13.03;100.00
15529;BME280;7866;52.280;9.500;2024-02-15T08:24:52;100409.81;;;13.07;100.00
15529;BME280;7866;52.280;9.500;2024-02-15T08:29:55;100409.81;;;13.22;100.00
15529;BME280;7866;52.280;9.500;2024-02-15T08:34:56;100399.06;;;13.22;100.00
15529;BME280;7866;52.280;9.500;2024-02-15T08:39:59;100396.94;;;13.32;100.00
15529;BME280;7866;52.280;9.500;2024-02-15T08:45:02;100400.56;;;13.39;100.00
15529;BME280;7866;52.280;9.500;2024-02-15T08:50:05;100395.75;;;13.49;100.00
15529;BME280;7866;52.280;9.500;2024-02-15T08:55:09;100385.63;;;13.51;100.00
15529;BME280;7866;52.280;9.500;2024-02-15T09:00:16;100390.47;;;13.41;100.00
15529;BME280;7866;52.280;9.500;2024-02-15T09:05:18;100387.94;;;13.54;100.00
15529;BME280;7866;52.280;9.500;2024-02-15T09:10:19;100394.25;;;13.62;100.00
15529;BME280;7866;52.280;9.500;2024-02-15T09:15:24;100378.84;;;13.55;100.00
15529;BME280;7866;52.280;9.500;2024-02-15T09:20:26;100378.19;;;13.68;100.00
15529;BME280;7866;52.280;9.500;2024-02-15T09:25:28;100382.09;;;13.66;100.00
15529;BME280;7866;52.280;9.500;2024-02-15T09:30:33;100383.75;;;13.67;100.00
15529;BME280;7866;52.280;9.500;2024-02-15T09:35:35;100375.16;;;13.57;100.00
15529;BME280;7866;52.280;9.500;2024-02-15T09:40:40;100375.53;;;13.53;100.00
15529;BME280;7866;52.280;9.500;2024-02-15T09:45:46;100378.00;;;13.55;100.00
15529;BME280;7866;52.280;9.500;2024-02-15T09:50:49;100388.97;;;13.53;100.00
15529;BME280;7866;52.280;9.500;2024-02-15T09:55:55;100394.16;;;13.55;100.00
15529;BME280;7866;52.280;9.500;2024-02-15T10:01:06;100394.72;;;13.50;100.00
15529;BME280;7866;52.280;9.500;2024-02-15T10:06:10;100388.06;;;13.46;100.00
15529;BME280;7866;52.280;9.500;2024-02-15T10:11:12;100393.16;;;13.41;100.00
15529;BME280;7866;52.280;9.500;2024-02-15T10:16:15;100395.56;;;13.36;100.00
15529;BME280;7866;52.280;9.500;2024-02-15T10:21:27;100397.63;;;13.34;100.00
15529;BME280;7866;52.280;9.500;2024-02-15T10:26:30;100403.94;;;13.41;100.00
15529;BME280;7866;52.280;9.500;2024-02-15T10:31:34;100400.41;;;13.41;100.00
15529;BME280;7866;52.280;9.500;2024-02-15T10:36:36;100393.91;;;13.35;100.00
15529;BME280;7866;52.280;9.500;2024-02-15T10:41:38;100390.19;;;13.51;100.00
15529;BME280;7866;52.280;9.500;2024-02-15T10:46:42;100386.66;;;13.65;100.00
15529;BME280;7866;52.280;9.500;2024-02-15T10:51:44;100377.91;;;13.63;100.00
15529;BME280;7866;52.280;9.500;2024-02-15T10:56:50;100370.97;;;13.69;100.00
15529;BME280;7866;52.280;9.500;2024-02-15T11:01:59;100367.56;;;13.96;100.00
15529;BME280;7866;52.280;9.500;2024-02-15T11:07:04;100367.81;;;14.01;100.00
15529;BME280;7866;52.280;9.500;2024-02-15T11:12:07;100363.28;;;13.87;100.00
15529;BME280;7866;52.280;9.500;2024-02-15T11:17:10;100352.34;;;13.89;100.00
15529;BME280;7866;52.280;9.500;2024-02-15T11:22:14;100351.69;;;13.87;100.00
15529;BME280;7866;52.280;9.500;2024-02-15T11:27:27;100330.81;;;13.89;100.00
15529;BME280;7866;52.280;9.500;2024-02-15T11:32:40;100330.41;;;13.92;100.00
15529;BME280;7866;52.280;9.500;2024-02-15T11:37:55;100322.28;;;13.85;100.00
15529;BME280;7866;52.280;9.500;2024-02-15T11:43:00;100321.63;;;13.83;100.00
15529;BME280;7866;52.280;9.500;2024-02-15T11:48:08;100309.81;;;13.84;100.00
15529;BME280;7866;52.280;9.500;2024-02-15T11:53:11;100307.66;;;13.73;100.00
15529;BME280;7866;52.280;9.500;2024-02-15T11:58:13;100298.75;;;13.72;100.00
15529;BME280;7866;52.280;9.500;2024-02-15T12:03:24;100290.00;;;13.70;100.00
15529;BME280;7866;52.280;9.500;2024-02-15T12:08:44;100297.28;;;13.55;100.00
15529;BME280;7866;52.280;9.500;2024-02-15T12:14:03;100284.50;;;13.57;100.00
15529;BME280;7866;52.280;9.500;2024-02-15T12:19:24;100275.84;;;13.62;100.00
15529;BME280;7866;52.280;9.500;2024-02-15T12:24:25;100283.38;;;13.51;100.00
15529;BME280;7866;52.280;9.500;2024-02-15T12:29:29;100280.97;;;13.57;100.00
15529;BME280;7866;52.280;9.500;2024-02-15T12:34:32;100280.31;;;13.54;100.00
15529;BME280;7866;52.280;9.500;2024-02-15T12:39:33;100275.06;;;13.68;100.00
15529;BME280;7866;52.280;9.500;2024-02-15T12:44:35;100280.56;;;13.60;100.00
15529;BME280;7866;52.280;9.500;2024-02-15T12:49:38;100284.06;;;13.75;100.00
15529;BME280;7866;52.280;9.500;2024-02-15T12:54:41;100287.91;;;13.87;100.00
15529;BME280;7866;52.280;9.500;2024-02-15T12:59:42;100273.88;;;13.92;100.00
15529;BME280;7866;52.280;9.500;2024-02-15T13:04:45;100260.16;;;13.87;100.00
15529;BME280;7866;52.280;9.500;2024-02-15T13:09:47;100233.88;;;13.67;100.00
15529;BME280;7866;52.280;9.500;2024-02-15T13:14:49;100257.41;;;14.01;100.00
15529;BME280;7866;52.280;9.500;2024-02-15T13:19:52;100246.56;;;14.16;100.00
15529;BME280;7866;52.280;9.500;2024-02-15T13:25:02;100252.63;;;14.25;100.00
15529;BME280;7866;52.280;9.500;2024-02-15T13:30:05;100247.03;;;14.26;100.00
15529;BME280;7866;52.280;9.500;2024-02-15T13:35:10;100236.75;;;14.37;100.00
15529;BME280;7866;52.280;9.500;2024-02-15T13:40:14;100238.75;;;14.28;100.00
15529;BME280;7866;52.280;9.500;2024-02-15T13:45:16;100230.66;;;14.28;100.00
15529;BME280;7866;52.280;9.500;2024-02-15T13:50:20;100235.91;;;14.36;100.00
15529;BME280;7866;52.280;9.500;2024-02-15T13:55:21;100221.78;;;14.56;100.00
15529;BME280;7866;52.280;9.500;2024-02-15T14:00:25;100225.72;;;14.60;100.00
15529;BME280;7866;52.280;9.500;2024-02-15T14:05:31;100218.28;;;14.34;100.00
15529;BME280;7866;52.280;9.500;2024-02-15T14:10:33;100227.34;;;14.26;100.00
15529;BME280;7866;52.280;9.500;2024-02-15T14:15:37;100229.66;;;14.29;100.00
15529;BME280;7866;52.280;9.500;2024-02-15T14:20:40;100220.03;;;14.20;100.00
15529;BME280;7866;52.280;9.500;2024-02-15T14:25:43;100227.16;;;14.27;100.00
15529;BME280;7866;52.280;9.500;2024-02-15T14:30:45;100225.00;;;14.16;100.00
15529;BME280;7866;52.280;9.500;2024-02-15T14:36:06;100229.16;;;14.19;100.00
15529;BME280;7866;52.280;9.500;2024-02-15T14:41:07;100224.13;;;14.09;100.00
15529;BME280;7866;52.280;9.500;2024-02-15T14:46:11;100230.81;;;14.20;100.00
15529;BME280;7866;52.280;9.500;2024-02-15T14:51:16;100216.72;;;14.18;100.00
15529;BME280;7866;52.280;9.500;2024-02-15T14:56:19;100227.28;;;14.19;100.00
15529;BME280;7866;52.280;9.500;2024-02-15T15:01:21;100223.31;;;14.15;100.00
15529;BME280;7866;52.280;9.500;2024-02-15T15:06:25;100224.16;;;14.16;100.00
15529;BME280;7866;52.280;9.500;2024-02-15T15:11:44;100218.75;;;14.16;100.00
15529;BME280;7866;52.280;9.500;2024-02-15T15:17:04;100225.13;;;14.08;100.00
15529;BME280;7866;52.280;9.500;2024-02-15T15:22:06;100222.84;;;14.05;100.00
15529;BME280;7866;52.280;9.500;2024-02-15T15:27:08;100222.16;;;13.96;100.00
15529;BME280;7866;52.280;9.500;2024-02-15T15:32:10;100222.25;;;13.88;100.00
15529;BME280;7866;52.280;9.500;2024-02-15T15:37:13;100217.16;;;13.93;100.00
15529;BME280;7866;52.280;9.500;2024-02-15T15:42:16;100215.28;;;13.94;100.00
15529;BME280;7866;52.280;9.500;2024-02-15T15:47:18;100211.94;;;13.92;100.00
15529;BME280;7866;52.280;9.500;2024-02-15T15:52:24;100197.28;;;13.94;100.00
15529;BME280;7866;52.280;9.500;2024-02-15T15:57:26;100198.03;;;13.88;100.00
15529;BME280;7866;52.280;9.500;2024-02-15T16:02:28;100191.81;;;13.88;100.00
15529;BME280;7866;52.280;9.500;2024-02-15T16:07:32;100184.19;;;13.91;100.00
15529;BME280;7866;52.280;9.500;2024-02-15T16:12:34;100185.81;;;13.86;100.00
15529;BME280;7866;52.280;9.500;2024-02-15T16:17:36;100195.69;;;13.78;100.00
15529;BME280;7866;52.280;9.500;2024-02-15T16:22:41;100197.31;;;13.73;100.00
15529;BME280;7866;52.280;9.500;2024-02-15T16:27:44;100197.59;;;13.63;100.00
15529;BME280;7866;52.280;9.500;2024-02-15T16:32:47;100184.97;;;13.64;100.00
15529;BME280;7866;52.280;9.500;2024-02-15T16:37:50;100187.19;;;13.53;100.00
15529;BME280;7866;52.280;9.500;2024-02-15T16:42:53;100193.59;;;13.52;100.00
15529;BME280;7866;52.280;9.500;2024-02-15T16:47:58;100194.16;;;13.48;100.00
15529;BME280;7866;52.280;9.500;2024-02-15T16:53:02;100181.72;;;13.47;100.00
15529;BME280;7866;52.280;9.500;2024-02-15T16:58:04;100173.84;;;13.45;100.00
15529;BME280;7866;52.280;9.500;2024-02-15T17:03:08;100168.06;;;13.48;100.00
15529;BME280;7866;52.280;9.500;2024-02-15T17:08:15;100174.69;;;13.46;100.00
15529;BME280;7866;52.280;9.500;2024-02-15T17:13:17;100176.34;;;13.47;100.00
15529;BME280;7866;52.280;9.500;2024-02-15T17:18:19;100179.03;;;13.47;100.00
15529;BME280;7866;52.280;9.500;2024-02-15T17:23:22;100185.91;;;13.49;100.00
15529;BME280;7866;52.280;9.500;2024-02-15T17:28:25;100181.34;;;13.50;100.00
15529;BME280;7866;52.280;9.500;2024-02-15T17:33:26;100182.56;;;13.47;100.00
15529;BME280;7866;52.280;9.500;2024-02-15T17:38:30;100189.16;;;13.45;100.00
15529;BME280;7866;52.280;9.500;2024-02-15T17:43:33;100191.41;;;13.41;100.00
15529;BME280;7866;52.280;9.500;2024-02-15T17:48:35;100192.59;;;13.39;100.00
15529;BME280;7866;52.280;9.500;2024-02-15T17:53:38;100195.09;;;13.40;100.00
15529;BME280;7866;52.280;9.500;2024-02-15T17:58:42;100197.41;;;13.43;100.00
15529;BME280;7866;52.280;9.500;2024-02-15T18:03:44;100197.78;;;13.40;100.00
15529;BME280;7866;52.280;9.500;2024-02-15T18:08:49;100196.00;;;13.47;100.00
15529;BME280;7866;52.280;9.500;2024-02-15T18:13:51;100203.56;;;13.37;100.00
15529;BME280;7866;52.280;9.500;2024-02-15T18:18:55;100193.66;;;13.38;100.00
15529;BME280;7866;52.280;9.500;2024-02-15T18:24:01;100196.97;;;13.40;100.00
15529;BME280;7866;52.280;9.500;2024-02-15T18:29:02;100199.19;;;13.36;100.00
15529;BME280;7866;52.280;9.500;2024-02-15T18:34:04;100197.78;;;13.40;100.00
15529;BME280;7866;52.280;9.500;2024-02-15T18:39:10;100191.78;;;13.38;100.00
15529;BME280;7866;52.280;9.500;2024-02-15T18:44:12;100180.13;;;13.31;100.00
15529;BME280;7866;52.280;9.500;2024-02-15T18:49:14;100174.94;;;13.29;100.00
15529;BME280;7866;52.280;9.500;2024-02-15T18:54:17;100179.09;;;13.32;100.00
15529;BME280;7866;52.280;9.500;2024-02-15T18:59:19;100169.47;;;13.23;100.00
15529;BME280;7866;52.280;9.500;2024-02-15T19:04:21;100195.22;;;13.32;100.00
15529;BME280;7866;52.280;9.500;2024-02-15T19:09:24;100194.59;;;13.30;100.00
15529;BME280;7866;52.280;9.500;2024-02-15T19:14:26;100176.13;;;13.27;100.00
15529;BME280;7866;52.280;9.500;2024-02-15T19:19:27;100167.34;;;13.18;100.00
15529;BME280;7866;52.280;9.500;2024-02-15T19:24:30;100168.31;;;13.32;100.00
15529;BME280;7866;52.280;9.500;2024-02-15T19:29:32;100153.34;;;13.23;99.71
15529;BME280;7866;52.280;9.500;2024-02-15T19:34:34;100158.34;;;13.26;98.08
15529;BME280;7866;52.280;9.500;2024-02-15T19:39:37;100161.94;;;13.33;97.88
15529;BME280;7866;52.280;9.500;2024-02-15T19:44:40;100161.13;;;13.33;98.29
15529;BME280;7866;52.280;9.500;2024-02-15T19:49:42;100163.22;;;13.37;97.07
15529;BME280;7866;52.280;9.500;2024-02-15T19:54:47;100147.25;;;13.36;97.49
15529;BME280;7866;52.280;9.500;2024-02-15T19:59:49;100134.25;;;13.39;96.39
15529;BME280;7866;52.280;9.500;2024-02-15T20:04:50;100131.00;;;13.44;95.97
15529;BME280;7866;52.280;9.500;2024-02-15T20:09:53;100128.13;;;13.45;95.74
15529;BME280;7866;52.280;9.500;2024-02-15T20:14:55;100137.53;;;13.35;95.31
15529;BME280;7866;52.280;9.500;2024-02-15T20:19:57;100132.25;;;13.48;95.64
15529;BME280;7866;52.280;9.500;2024-02-15T20:25:00;100133.50;;;13.45;95.66
15529;BME280;7866;52.280;9.500;2024-02-15T20:30:05;100132.72;;;13.30;96.13
15529;BME280;7866;52.280;9.500;2024-02-15T20:35:08;100127.34;;;13.30;96.92
15529;BME280;7866;52.280;9.500;2024-02-15T20:40:11;100125.88;;;13.27;95.35
15529;BME280;7866;52.280;9.500;2024-02-15T20:45:17;100131.63;;;13.24;95.77
15529;BME280;7866;52.280;9.500;2024-02-15T20:50:21;100099.56;;;13.23;95.94
15529;BME280;7866;52.280;9.500;2024-02-15T20:55:24;100100.84;;;13.27;95.97
15529;BME280;7866;52.280;9.500;2024-02-15T21:00:25;100084.31;;;13.30;95.52
15529;BME280;7866;52.280;9.500;2024-02-15T21:05:31;100094.69;;;13.33;96.08
15529;BME280;7866;52.280;9.500;2024-02-15T21:10:34;100102.88;;;13.46;95.72
15529;BME280;7866;52.280;9.500;2024-02-15T21:15:37;100100.13;;;13.40;95.54
15529;BME280;7866;52.280;9.500;2024-02-15T21:20:38;100095.97;;;13.37;96.44
15529;BME280;7866;52.280;9.500;2024-02-15T21:25:41;100092.84;;;13.34;96.13
15529;BME280;7866;52.280;9.500;2024-02-15T21:30:44;100081.16;;;13.48;96.11
15529;BME280;7866;52.280;9.500;2024-02-15T21:35:45;100073.97;;;13.55;95.95
15529;BME280;7866;52.280;9.500;2024-02-15T21:40:49;100086.97;;;13.51;96.24
15529;BME280;7866;52.280;9.500;2024-02-15T21:45:51;100089.50;;;13.53;96.11
15529;BME280;7866;52.280;9.500;2024-02-15T21:50:53;100089.50;;;13.53;97.60
15529;BME280;7866;52.280;9.500;2024-02-15T21:55:56;100079.94;;;13.50;97.68
15529;BME280;7866;52.280;9.500;2024-02-15T22:00:59;100074.25;;;13.39;98.70
15529;BME280;7866;52.280;9.500;2024-02-15T22:06:03;100074.59;;;13.29;99.66
15529;BME280;7866;52.280;9.500;2024-02-15T22:11:06;100088.16;;;13.21;100.00
15529;BME280;7866;52.280;9.500;2024-02-15T22:16:10;100084.09;;;13.10;100.00
15529;BME280;7866;52.280;9.500;2024-02-15T22:21:12;100064.25;;;13.11;100.00
15529;BME280;7866;52.280;9.500;2024-02-15T22:26:15;100059.84;;;13.03;100.00
15529;BME280;7866;52.280;9.500;2024-02-15T22:31:18;100059.59;;;12.98;100.00
15529;BME280;7866;52.280;9.500;2024-02-15T22:36:20;100051.78;;;13.03;100.00
15529;BME280;7866;52.280;9.500;2024-02-15T22:41:23;100037.00;;;12.93;100.00
15529;BME280;7866;52.280;9.500;2024-02-15T22:46:25;100045.94;;;13.00;100.00
15529;BME280;7866;52.280;9.500;2024-02-15T22:51:27;100044.28;;;12.99;100.00
15529;BME280;7866;52.280;9.500;2024-02-15T22:56:30;100032.88;;;13.18;99.85
15529;BME280;7866;52.280;9.500;2024-02-15T23:01:31;100026.44;;;13.34;98.80
15529;BME280;7866;52.280;9.500;2024-02-15T23:06:34;100022.09;;;13.33;98.19
15529;BME280;7866;52.280;9.500;2024-02-15T23:11:37;100021.66;;;13.36;97.72
15529;BME280;7866;52.280;9.500;2024-02-15T23:16:39;100019.47;;;13.46;96.33
15529;BME280;7866;52.280;9.500;2024-02-15T23:21:41;100007.84;;;13.39;96.27
15529;BME280;7866;52.280;9.500;2024-02-15T23:26:44;100005.00;;;13.47;95.62
15529;BME280;7866;52.280;9.500;2024-02-15T23:31:47;100006.25;;;13.45;96.29
15529;BME280;7866;52.280;9.500;2024-02-15T23:36:48;100002.75;;;13.51;94.78
15529;BME280;7866;52.280;9.500;2024-02-15T23:42:09;99992.19;;;13.49;95.71
15529;BME280;7866;52.280;9.500;2024-02-15T23:47:10;99995.47;;;13.45;93.83
15529;BME280;7866;52.280;9.500;2024-02-15T23:52:12;99992.59;;;13.46;93.94
15529;BME280;7866;52.280;9.500;2024-02-15T23:57:15;99985.09;;;13.42;94.21
